sensor_id;sensor_type;location;lat;lon;timestamp;pressure;altitude;pressure_sealevel;temperature;humidity
23059;BME280;30585;51.502;7.218;2022-08-04T00:00:09;155205.09;;;19.92;97.18
23059;BME280;30585;51.502;7.218;2022-08-04T00:02:45;155193.41;;;19.87;97.88
23059;BME280;30585;51.502;7.218;2022-08-04T00:05:28;155158.25;;;19.73;98.23
23059;BME280;30585;51.502;7.218;2022-08-04T00:08:04;155136.16;;;19.65;98.50
23059;BME280;30585;51.502;7.218;2022-08-04T00:10:33;155166.06;;;19.76;99.12
23059;BME280;30585;51.502;7.218;2022-08-04T00:13:03;155163.47;;;19.75;98.55
23059;BME280;30585;51.502;7.218;2022-08-04T00:15:32;155146.53;;;19.69;99.50
23059;BME280;30585;51.502;7.218;2022-08-04T00:18:03;155123.16;;;19.59;100.00
23059;BME280;30585;51.502;7.218;2022-08-04T00:20:37;155093.25;;;19.48;99.24
23059;BME280;30585;51.502;7.218;2022-08-04T00:23:07;155129.69;;;19.62;99.94
23059;BME280;30585;51.502;7.218;2022-08-04T00:25:38;155084.16;;;19.44;100.00
23059;BME280;30585;51.502;7.218;2022-08-04T00:28:07;155086.75;;;19.45;100.00
23059;BME280;30585;51.502;7.218;2022-08-04T00:30:36;155060.75;;;19.35;100.00
23059;BME280;30585;51.502;7.218;2022-08-04T00:33:04;155025.66;;;19.21;100.00
23059;BME280;30585;51.502;7.218;2022-08-04T00:35:35;155023.06;;;19.20;100.00
23059;BME280;30585;51.502;7.218;2022-08-04T00:38:05;155075.06;;;19.40;100.00
23059;BME280;30585;51.502;7.218;2022-08-04T00:40:41;155062.03;;;19.35;100.00
23059;BME280;30585;51.502;7.218;2022-08-04T00:43:19;155024.34;;;19.20;100.00
23059;BME280;30585;51.502;7.218;2022-08-04T00:46:01;155034.75;;;19.24;100.00
23059;BME280;30585;51.502;7.218;2022-08-04T00:49:02;155069.84;;;19.38;100.00
23059;BME280;30585;51.502;7.218;2022-08-04T00:51:45;155051.66;;;19.31;100.00
23059;BME280;30585;51.502;7.218;2022-08-04T00:54:54;155062.03;;;19.35;100.00
23059;BME280;30585;51.502;7.218;2022-08-04T00:57:46;155024.34;;;19.20;100.00
23059;BME280;30585;51.502;7.218;2022-08-04T01:00:18;155013.97;;;19.16;100.00
23059;BME280;30585;51.502;7.218;2022-08-04T01:03:01;154976.28;;;19.01;100.00
23059;BME280;30585;51.502;7.218;2022-08-04T01:05:47;155012.63;;;19.15;100.00
23059;BME280;30585;51.502;7.218;2022-08-04T01:08:39;155041.25;;;19.27;100.00
23059;BME280;30585;51.502;7.218;2022-08-04T01:11:22;155056.88;;;19.33;100.00
23059;BME280;30585;51.502;7.218;2022-08-04T01:14:09;155037.38;;;19.25;100.00
23059;BME280;30585;51.502;7.218;2022-08-04T01:16:47;155028.28;;;19.22;100.00
23059;BME280;30585;51.502;7.218;2022-08-04T01:19:33;154994.47;;;19.08;100.00
23059;BME280;30585;51.502;7.218;2022-08-04T01:22:32;155006.16;;;19.13;100.00
23059;BME280;30585;51.502;7.218;2022-08-04T01:25:33;154981.50;;;19.03;100.00
23059;BME280;30585;51.502;7.218;2022-08-04T01:28:26;155007.47;;;19.13;100.00
23059;BME280;30585;51.502;7.218;2022-08-04T01:31:01;154989.25;;;19.06;100.00
23059;BME280;30585;51.502;7.218;2022-08-04T01:33:38;154981.50;;;19.03;100.00
23059;BME280;30585;51.502;7.218;2022-08-04T01:36:32;154950.22;;;18.91;100.00
23059;BME280;30585;51.502;7.218;2022-08-04T01:39:02;154947.63;;;18.90;100.00
23059;BME280;30585;51.502;7.218;2022-08-04T01:41:51;154991.84;;;19.07;100.00
23059;BME280;30585;51.502;7.218;2022-08-04T01:44:26;154946.34;;;18.89;100.00
23059;BME280;30585;51.502;7.218;2022-08-04T01:46:56;154919.03;;;18.78;100.00
23059;BME280;30585;51.502;7.218;2022-08-04T01:49:28;154965.84;;;18.97;100.00
23059;BME280;30585;51.502;7.218;2022-08-04T01:52:09;154943.75;;;18.88;100.00
23059;BME280;30585;51.502;7.218;2022-08-04T01:54:40;154895.63;;;18.69;100.00
23059;BME280;30585;51.502;7.218;2022-08-04T01:57:09;154919.03;;;18.78;100.00
23059;BME280;30585;51.502;7.218;2022-08-04T01:59:58;154930.72;;;18.83;100.00
23059;BME280;30585;51.502;7.218;2022-08-04T02:02:28;154942.41;;;18.88;100.00
23059;BME280;30585;51.502;7.218;2022-08-04T02:04:56;154911.25;;;18.75;100.00
23059;BME280;30585;51.502;7.218;2022-08-04T02:07:46;154954.13;;;18.92;100.00
23059;BME280;30585;51.502;7.218;2022-08-04T02:10:22;154991.84;;;19.07;100.00
23059;BME280;30585;51.502;7.218;2022-08-04T02:13:04;154977.56;;;19.02;99.93
23059;BME280;30585;51.502;7.218;2022-08-04T02:15:42;154999.66;;;19.10;100.00
23059;BME280;30585;51.502;7.218;2022-08-04T02:18:20;155006.16;;;19.13;99.44
23059;BME280;30585;51.502;7.218;2022-08-04T02:20:55;155013.97;;;19.16;99.44
23059;BME280;30585;51.502;7.218;2022-08-04T02:23:29;155025.66;;;19.21;98.18
23059;BME280;30585;51.502;7.218;2022-08-04T02:26:00;155068.56;;;19.38;97.95
23059;BME280;30585;51.502;7.218;2022-08-04T02:28:33;155060.75;;;19.35;97.21
23059;BME280;30585;51.502;7.218;2022-08-04T02:31:07;155111.44;;;19.55;97.23
23059;BME280;30585;51.502;7.218;2022-08-04T02:33:39;155120.53;;;19.58;95.46
23059;BME280;30585;51.502;7.218;2022-08-04T02:36:10;155176.47;;;19.81;95.23
23059;BME280;30585;51.502;7.218;2022-08-04T02:38:53;155184.25;;;19.84;94.76
23059;BME280;30585;51.502;7.218;2022-08-04T02:41:23;155233.72;;;20.03;94.13
23059;BME280;30585;51.502;7.218;2022-08-04T02:43:55;155232.44;;;20.03;93.92
23059;BME280;30585;51.502;7.218;2022-08-04T02:46:24;155212.91;;;19.95;93.76
23059;BME280;30585;51.502;7.218;2022-08-04T02:48:53;155235.03;;;20.04;93.47
23059;BME280;30585;51.502;7.218;2022-08-04T02:51:24;155241.53;;;20.06;93.07
23059;BME280;30585;51.502;7.218;2022-08-04T02:53:54;155241.53;;;20.06;92.98
23059;BME280;30585;51.502;7.218;2022-08-04T02:56:24;155257.13;;;20.13;92.85
23059;BME280;30585;51.502;7.218;2022-08-04T02:58:57;155262.34;;;20.15;92.47
23059;BME280;30585;51.502;7.218;2022-08-04T03:01:26;155245.44;;;20.08;92.86
23059;BME280;30585;51.502;7.218;2022-08-04T03:04:13;155248.03;;;20.09;92.07
23059;BME280;30585;51.502;7.218;2022-08-04T03:07:11;155240.22;;;20.06;92.96
23059;BME280;30585;51.502;7.218;2022-08-04T03:13:08;155143.94;;;19.68;94.85
23059;BME280;30585;51.502;7.218;2022-08-04T03:16:08;155147.88;;;19.69;95.49
23059;BME280;30585;51.502;7.218;2022-08-04T03:22:21;155106.22;;;19.53;95.61
23059;BME280;30585;51.502;7.218;2022-08-04T03:28:20;155077.66;;;19.41;99.33
23059;BME280;30585;51.502;7.218;2022-08-04T03:31:09;155033.44;;;19.24;99.39
23059;BME280;30585;51.502;7.218;2022-08-04T03:33:58;154997.06;;;19.09;98.92
23059;BME280;30585;51.502;7.218;2022-08-04T03:37:00;154999.66;;;19.10;99.55
23059;BME280;30585;51.502;7.218;2022-08-04T03:40:02;154991.84;;;19.07;100.00
23059;BME280;30585;51.502;7.218;2022-08-04T03:46:33;154937.22;;;18.85;100.00
23059;BME280;30585;51.502;7.218;2022-08-04T03:49:28;154898.25;;;18.70;100.00
23059;BME280;30585;51.502;7.218;2022-08-04T03:52:12;154851.47;;;18.51;100.00
23059;BME280;30585;51.502;7.218;2022-08-04T04:01:28;154821.59;;;18.40;100.00
23059;BME280;30585;51.502;7.218;2022-08-04T04:04:48;154773.50;;;18.20;100.00
23059;BME280;30585;51.502;7.218;2022-08-04T04:07:49;154763.16;;;18.16;100.00
23059;BME280;30585;51.502;7.218;2022-08-04T04:10:45;154731.97;;;18.04;100.00
23059;BME280;30585;51.502;7.218;2022-08-04T04:13:31;154748.84;;;18.11;100.00
23059;BME280;30585;51.502;7.218;2022-08-04T04:16:24;154741.03;;;18.08;100.00
23059;BME280;30585;51.502;7.218;2022-08-04T04:19:13;154759.22;;;18.15;100.00
23059;BME280;30585;51.502;7.218;2022-08-04T04:22:00;154793.00;;;18.28;100.00
23059;BME280;30585;51.502;7.218;2022-08-04T04:24:47;154825.47;;;18.41;100.00
23059;BME280;30585;51.502;7.218;2022-08-04T04:27:39;154859.28;;;18.55;100.00
23059;BME280;30585;51.502;7.218;2022-08-04T04:30:15;154880.06;;;18.63;100.00
23059;BME280;30585;51.502;7.218;2022-08-04T04:33:02;154900.84;;;18.71;100.00
23059;BME280;30585;51.502;7.218;2022-08-04T04:35:40;154908.66;;;18.74;100.00
23059;BME280;30585;51.502;7.218;2022-08-04T04:38:33;154919.03;;;18.78;100.00
23059;BME280;30585;51.502;7.218;2022-08-04T04:41:20;154937.22;;;18.85;100.00
23059;BME280;30585;51.502;7.218;2022-08-04T04:44:12;154955.47;;;18.93;100.00
23059;BME280;30585;51.502;7.218;2022-08-04T04:46:46;154955.47;;;18.93;100.00
23059;BME280;30585;51.502;7.218;2022-08-04T04:49:24;154967.19;;;18.97;100.00
23059;BME280;30585;51.502;7.218;2022-08-04T04:51:59;154977.56;;;19.02;100.00
23059;BME280;30585;51.502;7.218;2022-08-04T04:54:33;154989.25;;;19.06;100.00
23059;BME280;30585;51.502;7.218;2022-08-04T04:57:10;154999.66;;;19.10;100.00
23059;BME280;30585;51.502;7.218;2022-08-04T04:59:46;155023.06;;;19.20;100.00
23059;BME280;30585;51.502;7.218;2022-08-04T05:02:32;155050.34;;;19.30;100.00
23059;BME280;30585;51.502;7.218;2022-08-04T05:05:17;155086.75;;;19.45;100.00
23059;BME280;30585;51.502;7.218;2022-08-04T05:08:02;155101.06;;;19.51;100.00
23059;BME280;30585;51.502;7.218;2022-08-04T05:11:18;155133.56;;;19.64;100.00
23059;BME280;30585;51.502;7.218;2022-08-04T05:13:53;155160.84;;;19.74;100.00
23059;BME280;30585;51.502;7.218;2022-08-04T05:16:46;155173.88;;;19.80;100.00
23059;BME280;30585;51.502;7.218;2022-08-04T05:19:21;155216.81;;;19.97;100.00
23059;BME280;30585;51.502;7.218;2022-08-04T05:21:57;155222.03;;;19.99;100.00
23059;BME280;30585;51.502;7.218;2022-08-04T05:24:27;155248.03;;;20.09;100.00
23059;BME280;30585;51.502;7.218;2022-08-04T05:27:02;155258.47;;;20.13;99.70
23059;BME280;30585;51.502;7.218;2022-08-04T05:29:35;155272.75;;;20.19;99.78
23059;BME280;30585;51.502;7.218;2022-08-04T05:32:10;155285.75;;;20.24;99.45
23059;BME280;30585;51.502;7.218;2022-08-04T05:34:43;155352.09;;;20.50;99.16
23059;BME280;30585;51.502;7.218;2022-08-04T05:37:15;155397.59;;;20.68;98.79
23059;BME280;30585;51.502;7.218;2022-08-04T05:39:45;155438.00;;;20.84;98.78
23059;BME280;30585;51.502;7.218;2022-08-04T05:42:14;155478.34;;;21.00;97.79
23059;BME280;30585;51.502;7.218;2022-08-04T05:44:42;155512.19;;;21.14;97.25
23059;BME280;30585;51.502;7.218;2022-08-04T05:47:17;155553.81;;;21.30;96.95
23059;BME280;30585;51.502;7.218;2022-08-04T05:49:48;155564.25;;;21.35;96.00
23059;BME280;30585;51.502;7.218;2022-08-04T05:52:29;155616.28;;;21.55;96.15
23059;BME280;30585;51.502;7.218;2022-08-04T05:54:58;155693.16;;;21.86;94.11
23059;BME280;30585;51.502;7.218;2022-08-04T05:57:27;155736.09;;;22.03;94.77
23059;BME280;30585;51.502;7.218;2022-08-04T05:59:58;155762.13;;;22.13;93.77
23059;BME280;30585;51.502;7.218;2022-08-04T06:02:48;155776.47;;;22.19;95.11
23059;BME280;30585;51.502;7.218;2022-08-04T06:05:18;155853.38;;;22.49;95.54
23059;BME280;30585;51.502;7.218;2022-08-04T06:07:47;155902.88;;;22.69;94.80
23059;BME280;30585;51.502;7.218;2022-08-04T06:10:37;155943.22;;;22.85;92.97
23059;BME280;30585;51.502;7.218;2022-08-04T06:13:09;155969.28;;;22.95;91.75
23059;BME280;30585;51.502;7.218;2022-08-04T06:15:58;156014.88;;;23.13;90.08
23059;BME280;30585;51.502;7.218;2022-08-04T06:18:30;156054.00;;;23.29;86.65
23059;BME280;30585;51.502;7.218;2022-08-04T06:21:22;156086.63;;;23.42;87.30
23059;BME280;30585;51.502;7.218;2022-08-04T06:23:53;156155.66;;;23.69;86.38
23059;BME280;30585;51.502;7.218;2022-08-04T06:26:31;156205.19;;;23.89;85.02
23059;BME280;30585;51.502;7.218;2022-08-04T06:29:02;156267.84;;;24.14;82.02
23059;BME280;30585;51.502;7.218;2022-08-04T06:31:31;156293.88;;;24.24;73.95
23059;BME280;30585;51.502;7.218;2022-08-04T06:34:33;156352.56;;;24.47;78.21
23059;BME280;30585;51.502;7.218;2022-08-04T06:37:02;156409.97;;;24.70;78.92
23059;BME280;30585;51.502;7.218;2022-08-04T06:39:31;156469.97;;;24.94;75.51
23059;BME280;30585;51.502;7.218;2022-08-04T06:42:01;156509.09;;;25.09;75.29
23059;BME280;30585;51.502;7.218;2022-08-04T06:44:48;156536.47;;;25.20;66.79
23059;BME280;30585;51.502;7.218;2022-08-04T06:47:17;156539.06;;;25.21;65.51
23059;BME280;30585;51.502;7.218;2022-08-04T06:49:49;156621.34;;;25.54;69.05
23059;BME280;30585;51.502;7.218;2022-08-04T06:52:38;156707.44;;;25.88;67.42
23059;BME280;30585;51.502;7.218;2022-08-04T06:55:07;156736.16;;;25.99;66.17
23059;BME280;30585;51.502;7.218;2022-08-04T06:57:35;156749.19;;;26.04;65.45
23059;BME280;30585;51.502;7.218;2022-08-04T07:00:05;156797.53;;;26.23;63.80
23059;BME280;30585;51.502;7.218;2022-08-04T07:02:39;156901.94;;;26.65;66.34
23059;BME280;30585;51.502;7.218;2022-08-04T07:05:10;156954.19;;;26.85;65.80
23059;BME280;30585;51.502;7.218;2022-08-04T07:07:39;156998.59;;;27.03;63.82
23059;BME280;30585;51.502;7.218;2022-08-04T07:10:24;156952.91;;;26.85;56.97
23059;BME280;30585;51.502;7.218;2022-08-04T07:12:54;157048.22;;;27.22;57.52
23059;BME280;30585;51.502;7.218;2022-08-04T07:15:24;157083.47;;;27.36;56.22
23059;BME280;30585;51.502;7.218;2022-08-04T07:17:53;157124.00;;;27.52;54.31
23059;BME280;30585;51.502;7.218;2022-08-04T07:20:23;157193.25;;;27.80;56.75
23059;BME280;30585;51.502;7.218;2022-08-04T07:23:02;157275.59;;;28.12;56.87
23059;BME280;30585;51.502;7.218;2022-08-04T07:25:32;157329.13;;;28.34;52.21
23059;BME280;30585;51.502;7.218;2022-08-04T07:28:20;157357.88;;;28.45;53.89
23059;BME280;30585;51.502;7.218;2022-08-04T07:30:49;157312.19;;;28.27;52.74
23059;BME280;30585;51.502;7.218;2022-08-04T07:33:17;157353.97;;;28.43;53.06
23059;BME280;30585;51.502;7.218;2022-08-04T07:35:50;157404.94;;;28.64;51.68
23059;BME280;30585;51.502;7.218;2022-08-04T07:38:38;157427.22;;;28.72;53.80
23059;BME280;30585;51.502;7.218;2022-08-04T07:41:19;157529.16;;;29.13;51.27
23059;BME280;30585;51.502;7.218;2022-08-04T07:44:04;157627.22;;;29.51;50.90
23059;BME280;30585;51.502;7.218;2022-08-04T07:46:32;157559.22;;;29.25;49.42
23059;BME280;30585;51.502;7.218;2022-08-04T07:49:00;157535.69;;;29.15;49.65
23059;BME280;30585;51.502;7.218;2022-08-04T07:51:30;157563.13;;;29.26;47.98
23059;BME280;30585;51.502;7.218;2022-08-04T07:53:58;157606.31;;;29.43;46.58
23059;BME280;30585;51.502;7.218;2022-08-04T07:56:29;157631.13;;;29.53;49.83
23059;BME280;30585;51.502;7.218;2022-08-04T07:58:58;157607.59;;;29.44;47.69
23059;BME280;30585;51.502;7.218;2022-08-04T08:01:26;157559.22;;;29.25;48.50
23059;BME280;30585;51.502;7.218;2022-08-04T08:03:56;157570.97;;;29.29;49.09
23059;BME280;30585;51.502;7.218;2022-08-04T08:06:24;157602.41;;;29.42;48.83
23059;BME280;30585;51.502;7.218;2022-08-04T08:09:06;157644.25;;;29.58;47.58
23059;BME280;30585;51.502;7.218;2022-08-04T08:11:39;157632.47;;;29.53;50.36
23059;BME280;30585;51.502;7.218;2022-08-04T08:14:28;157599.78;;;29.41;46.82
23059;BME280;30585;51.502;7.218;2022-08-04T08:16:58;157704.34;;;29.82;49.64
23059;BME280;30585;51.502;7.218;2022-08-04T08:19:27;157795.97;;;30.18;47.89
23059;BME280;30585;51.502;7.218;2022-08-04T08:21:55;157822.13;;;30.28;47.19
23059;BME280;30585;51.502;7.218;2022-08-04T08:24:29;157849.59;;;30.39;46.77
23059;BME280;30585;51.502;7.218;2022-08-04T08:26:58;157898.06;;;30.58;46.62
23059;BME280;30585;51.502;7.218;2022-08-04T08:29:27;157900.63;;;30.59;45.94
23059;BME280;30585;51.502;7.218;2022-08-04T08:31:56;157963.44;;;30.84;45.41
23059;BME280;30585;51.502;7.218;2022-08-04T08:34:31;158007.91;;;31.02;46.05
23059;BME280;30585;51.502;7.218;2022-08-04T08:37:02;158082.53;;;31.31;45.13
23059;BME280;30585;51.502;7.218;2022-08-04T08:39:36;158123.09;;;31.47;43.71
23059;BME280;30585;51.502;7.218;2022-08-04T08:42:44;157998.75;;;30.98;42.86
23059;BME280;30585;51.502;7.218;2022-08-04T08:48:32;158083.84;;;31.32;41.55
23059;BME280;30585;51.502;7.218;2022-08-04T08:51:29;158147.97;;;31.57;41.29
23059;BME280;30585;51.502;7.218;2022-08-04T08:57:06;158246.16;;;31.96;42.19
23059;BME280;30585;51.502;7.218;2022-08-04T08:59:51;158229.13;;;31.89;40.07
23059;BME280;30585;51.502;7.218;2022-08-04T09:02:55;158124.44;;;31.48;40.00
23059;BME280;30585;51.502;7.218;2022-08-04T09:05:50;158167.59;;;31.65;40.53
23059;BME280;30585;51.502;7.218;2022-08-04T09:08:30;158294.63;;;32.15;40.46
23059;BME280;30585;51.502;7.218;2022-08-04T09:11:08;158370.59;;;32.45;39.79
23059;BME280;30585;51.502;7.218;2022-08-04T09:13:44;158292.00;;;32.14;40.86
23059;BME280;30585;51.502;7.218;2022-08-04T09:16:18;158343.09;;;32.34;38.05
23059;BME280;30585;51.502;7.218;2022-08-04T09:18:53;158379.75;;;32.48;39.95
23059;BME280;30585;51.502;7.218;2022-08-04T09:21:27;158488.50;;;32.91;41.04
23059;BME280;30585;51.502;7.218;2022-08-04T09:24:04;158508.16;;;32.99;39.40
23059;BME280;30585;51.502;7.218;2022-08-04T09:26:56;158571.00;;;33.24;37.36
23059;BME280;30585;51.502;7.218;2022-08-04T09:29:32;158398.09;;;32.56;37.62
23059;BME280;30585;51.502;7.218;2022-08-04T09:32:09;158573.63;;;33.25;36.63
23059;BME280;30585;51.502;7.218;2022-08-04T09:34:44;158657.47;;;33.58;36.68
23059;BME280;30585;51.502;7.218;2022-08-04T09:37:36;158699.41;;;33.75;36.50
23059;BME280;30585;51.502;7.218;2022-08-04T09:40:18;158670.59;;;33.63;35.43
23059;BME280;30585;51.502;7.218;2022-08-04T09:43:16;158639.13;;;33.51;36.02
23059;BME280;30585;51.502;7.218;2022-08-04T09:45:57;158571.00;;;33.24;34.45
23059;BME280;30585;51.502;7.218;2022-08-04T09:48:33;158716.41;;;33.81;37.12
23059;BME280;30585;51.502;7.218;2022-08-04T09:51:10;158850.13;;;34.34;36.44
23059;BME280;30585;51.502;7.218;2022-08-04T09:53:52;158848.81;;;34.33;33.36
23059;BME280;30585;51.502;7.218;2022-08-04T09:56:27;158816.03;;;34.21;33.78
23059;BME280;30585;51.502;7.218;2022-08-04T09:59:05;158854.03;;;34.36;37.57
23059;BME280;30585;51.502;7.218;2022-08-04T10:01:41;158998.28;;;34.92;35.35
23059;BME280;30585;51.502;7.218;2022-08-04T10:04:12;158740.03;;;33.91;32.51
23059;BME280;30585;51.502;7.218;2022-08-04T10:07:00;158688.91;;;33.70;33.84
23059;BME280;30585;51.502;7.218;2022-08-04T10:09:42;158848.81;;;34.33;34.34
23059;BME280;30585;51.502;7.218;2022-08-04T10:12:26;158767.56;;;34.01;34.56
23059;BME280;30585;51.502;7.218;2022-08-04T10:15:02;158872.47;;;34.43;34.81
23059;BME280;30585;51.502;7.218;2022-08-04T10:18:01;159134.69;;;35.46;34.28
23059;BME280;30585;51.502;7.218;2022-08-04T10:20:41;159105.78;;;35.35;33.79
23059;BME280;30585;51.502;7.218;2022-08-04T10:23:30;159145.13;;;35.50;32.17
23059;BME280;30585;51.502;7.218;2022-08-04T10:26:28;159078.28;;;35.24;32.01
23059;BME280;30585;51.502;7.218;2022-08-04T10:29:02;159015.31;;;34.99;32.41
23059;BME280;30585;51.502;7.218;2022-08-04T10:31:33;159163.53;;;35.58;32.28
23059;BME280;30585;51.502;7.218;2022-08-04T10:34:07;158930.09;;;34.66;31.82
23059;BME280;30585;51.502;7.218;2022-08-04T10:36:48;159052.06;;;35.14;32.80
23059;BME280;30585;51.502;7.218;2022-08-04T10:39:24;158915.66;;;34.60;33.56
23059;BME280;30585;51.502;7.218;2022-08-04T10:42:17;158779.38;;;34.06;33.84
23059;BME280;30585;51.502;7.218;2022-08-04T10:44:59;158861.97;;;34.39;33.09
23059;BME280;30585;51.502;7.218;2022-08-04T10:47:36;158725.63;;;33.85;33.41
23059;BME280;30585;51.502;7.218;2022-08-04T10:50:08;158766.25;;;34.01;33.69
23059;BME280;30585;51.502;7.218;2022-08-04T10:52:43;158890.78;;;34.50;32.92
23059;BME280;30585;51.502;7.218;2022-08-04T10:55:15;159016.66;;;35.00;33.51
23059;BME280;30585;51.502;7.218;2022-08-04T10:57:47;159142.56;;;35.49;33.50
23059;BME280;30585;51.502;7.218;2022-08-04T11:00:20;159214.66;;;35.78;32.80
23059;BME280;30585;51.502;7.218;2022-08-04T11:02:52;158856.66;;;34.37;33.56
23059;BME280;30585;51.502;7.218;2022-08-04T11:05:29;158989.06;;;34.89;34.78
23059;BME280;30585;51.502;7.218;2022-08-04T11:08:13;158972.00;;;34.82;33.43
23059;BME280;30585;51.502;7.218;2022-08-04T11:10:56;158948.44;;;34.73;35.17
23059;BME280;30585;51.502;7.218;2022-08-04T11:13:43;158754.44;;;33.96;34.44
23059;BME280;30585;51.502;7.218;2022-08-04T11:16:16;158749.25;;;33.94;37.17
23059;BME280;30585;51.502;7.218;2022-08-04T11:18:52;158766.25;;;34.01;35.94
23059;BME280;30585;51.502;7.218;2022-08-04T11:21:32;158597.22;;;33.34;36.35
23059;BME280;30585;51.502;7.218;2022-08-04T11:24:02;158691.53;;;33.71;37.56
23059;BME280;30585;51.502;7.218;2022-08-04T11:26:37;158590.66;;;33.32;35.89
23059;BME280;30585;51.502;7.218;2022-08-04T11:29:16;158779.38;;;34.06;36.14
23059;BME280;30585;51.502;7.218;2022-08-04T11:31:49;158745.28;;;33.93;34.98
23059;BME280;30585;51.502;7.218;2022-08-04T11:34:19;158754.44;;;33.96;36.43
23059;BME280;30585;51.502;7.218;2022-08-04T11:36:54;158795.06;;;34.12;34.97
23059;BME280;30585;51.502;7.218;2022-08-04T11:39:28;158782.00;;;34.07;34.63
23059;BME280;30585;51.502;7.218;2022-08-04T11:42:05;158823.91;;;34.24;35.35
23059;BME280;30585;51.502;7.218;2022-08-04T11:44:40;158830.44;;;34.26;35.29
23059;BME280;30585;51.502;7.218;2022-08-04T11:47:19;158717.75;;;33.82;36.98
23059;BME280;30585;51.502;7.218;2022-08-04T11:49:53;158661.41;;;33.60;35.83
23059;BME280;30585;51.502;7.218;2022-08-04T11:52:25;158691.53;;;33.71;36.06
23059;BME280;30585;51.502;7.218;2022-08-04T11:54:55;158694.16;;;33.72;36.19
23059;BME280;30585;51.502;7.218;2022-08-04T11:57:24;158673.22;;;33.64;36.62
23059;BME280;30585;51.502;7.218;2022-08-04T12:00:04;158742.66;;;33.92;35.68
23059;BME280;30585;51.502;7.218;2022-08-04T12:14:03;158571.00;;;33.24;37.80
23059;BME280;30585;51.502;7.218;2022-08-04T12:16:41;158539.53;;;33.12;37.54
23059;BME280;30585;51.502;7.218;2022-08-04T12:19:20;158388.94;;;32.52;39.04
23059;BME280;30585;51.502;7.218;2022-08-04T12:21:57;158429.53;;;32.68;37.80
23059;BME280;30585;51.502;7.218;2022-08-04T12:24:32;158442.59;;;32.73;40.25
23059;BME280;30585;51.502;7.218;2022-08-04T12:27:06;158332.63;;;32.30;39.20
23059;BME280;30585;51.502;7.218;2022-08-04T12:29:40;158416.41;;;32.63;38.63
23059;BME280;30585;51.502;7.218;2022-08-04T12:32:33;158517.31;;;33.03;40.26
23059;BME280;30585;51.502;7.218;2022-08-04T12:35:18;158310.31;;;32.21;39.76
23059;BME280;30585;51.502;7.218;2022-08-04T12:37:53;158409.88;;;32.60;41.70
23059;BME280;30585;51.502;7.218;2022-08-04T12:40:26;158377.13;;;32.47;41.11
23059;BME280;30585;51.502;7.218;2022-08-04T12:43:11;158320.84;;;32.25;40.96
23059;BME280;30585;51.502;7.218;2022-08-04T12:45:48;158352.25;;;32.38;42.25
23059;BME280;30585;51.502;7.218;2022-08-04T12:48:17;158298.53;;;32.16;42.31
23059;BME280;30585;51.502;7.218;2022-08-04T12:50:47;158272.34;;;32.06;42.46
23059;BME280;30585;51.502;7.218;2022-08-04T12:53:17;158248.78;;;31.97;42.64
23059;BME280;30585;51.502;7.218;2022-08-04T12:55:59;158332.63;;;32.30;41.66
23059;BME280;30585;51.502;7.218;2022-08-04T12:58:32;158319.53;;;32.25;42.30
23059;BME280;30585;51.502;7.218;2022-08-04T13:01:13;158324.78;;;32.27;42.62
23059;BME280;30585;51.502;7.218;2022-08-04T13:04:10;158251.41;;;31.98;43.03
23059;BME280;30585;51.502;7.218;2022-08-04T13:06:40;158244.88;;;31.95;42.43
23059;BME280;30585;51.502;7.218;2022-08-04T13:09:10;158242.25;;;31.94;42.88
23059;BME280;30585;51.502;7.218;2022-08-04T13:11:48;158208.22;;;31.81;44.05
23059;BME280;30585;51.502;7.218;2022-08-04T13:14:17;158193.81;;;31.75;45.56
23059;BME280;30585;51.502;7.218;2022-08-04T13:16:57;158159.75;;;31.62;44.89
23059;BME280;30585;51.502;7.218;2022-08-04T13:19:27;158277.59;;;32.08;45.63
23059;BME280;30585;51.502;7.218;2022-08-04T13:21:56;158358.81;;;32.40;44.57
23059;BME280;30585;51.502;7.218;2022-08-04T13:24:30;158391.53;;;32.53;42.84
23059;BME280;30585;51.502;7.218;2022-08-04T13:27:19;158556.56;;;33.18;45.49
23059;BME280;30585;51.502;7.218;2022-08-04T13:29:51;158589.31;;;33.31;41.17
23059;BME280;30585;51.502;7.218;2022-08-04T13:32:31;158581.44;;;33.28;42.68
23059;BME280;30585;51.502;7.218;2022-08-04T13:35:01;158463.59;;;32.82;43.46
23059;BME280;30585;51.502;7.218;2022-08-04T13:37:34;158399.38;;;32.56;43.10
23059;BME280;30585;51.502;7.218;2022-08-04T13:40:06;158385.00;;;32.51;45.83
23059;BME280;30585;51.502;7.218;2022-08-04T13:42:36;158441.31;;;32.73;44.13
23059;BME280;30585;51.502;7.218;2022-08-04T13:45:06;158387.59;;;32.52;44.39
23059;BME280;30585;51.502;7.218;2022-08-04T13:47:38;158264.47;;;32.03;45.38
23059;BME280;30585;51.502;7.218;2022-08-04T13:50:15;158288.09;;;32.12;44.33
23059;BME280;30585;51.502;7.218;2022-08-04T13:52:45;158284.13;;;32.11;45.62
23059;BME280;30585;51.502;7.218;2022-08-04T13:55:21;158251.41;;;31.98;45.49
23059;BME280;30585;51.502;7.218;2022-08-04T13:58:01;158269.72;;;32.05;44.78
23059;BME280;30585;51.502;7.218;2022-08-04T14:00:46;158301.16;;;32.17;46.75
23059;BME280;30585;51.502;7.218;2022-08-04T14:03:21;158239.63;;;31.93;45.86
23059;BME280;30585;51.502;7.218;2022-08-04T14:06:07;158260.56;;;32.01;46.43
23059;BME280;30585;51.502;7.218;2022-08-04T14:08:44;158374.53;;;32.46;48.77
23059;BME280;30585;51.502;7.218;2022-08-04T14:11:13;158430.81;;;32.69;42.88
23059;BME280;30585;51.502;7.218;2022-08-04T14:14:17;158434.78;;;32.70;45.48
23059;BME280;30585;51.502;7.218;2022-08-04T14:17:04;158375.81;;;32.47;45.49
23059;BME280;30585;51.502;7.218;2022-08-04T14:19:52;158476.69;;;32.87;41.65
23059;BME280;30585;51.502;7.218;2022-08-04T14:22:27;158310.31;;;32.21;43.43